createdAt,value
2023-11-15T00:02:35.542Z,9.38
2023-11-15T00:07:40.800Z,8.88
2023-11-15T00:12:45.830Z,9.95
2023-11-15T00:17:49.444Z,10.63
2023-11-15T00:22:54.295Z,10.27
2023-11-15T00:27:57.788Z,11.95
2023-11-15T00:33:01.441Z,11.95
2023-11-15T00:38:06.383Z,7.57
2023-11-15T00:43:09.897Z,9.20
2023-11-15T00:48:13.746Z,11.18
2023-11-15T00:53:18.902Z,8.38
2023-11-15T00:58:23.332Z,9.75
2023-11-15T01:03:28.277Z,8.02
2023-11-15T01:08:33.223Z,8.27
2023-11-15T01:13:37.869Z,7.75
2023-11-15T01:18:43.812Z,8.68
2023-11-15T01:23:49.024Z,8.27
2023-11-15T01:28:52.645Z,8.32
2023-11-15T01:33:56.098Z,7.40
2023-11-15T01:39:00.984Z,6.68
2023-11-15T01:44:04.463Z,7.25
2023-11-15T01:49:07.980Z,8.57
2023-11-15T01:54:14.362Z,7.88
2023-11-15T01:59:18.266Z,10.90
2023-11-15T02:04:21.757Z,8.73
2023-11-15T02:09:26.828Z,8.93
2023-11-15T02:14:31.981Z,7.35
2023-11-15T02:19:35.618Z,13.82
2023-11-15T02:24:40.417Z,9.30
2023-11-15T02:29:44.027Z,11.77
2023-11-15T02:34:47.611Z,9.15
2023-11-15T02:39:52.400Z,9.70
2023-11-15T02:44:55.829Z,6.85
2023-11-15T02:49:59.311Z,7.70
2023-11-15T02:55:05.176Z,8.82
2023-11-15T03:00:12.038Z,8.40
2023-11-15T03:05:15.539Z,7.93
2023-11-15T03:10:20.462Z,7.40
2023-11-15T03:15:24.136Z,7.72
2023-11-15T03:20:27.848Z,8.18
2023-11-15T03:25:33.190Z,7.70
2023-11-15T03:30:37.178Z,7.80
2023-11-15T03:35:40.748Z,8.20
2023-11-15T03:40:45.631Z,8.25
2023-11-15T03:45:49.148Z,7.82
2023-11-15T03:50:53.092Z,7.90
2023-11-15T03:55:57.979Z,9.25
2023-11-15T04:01:02.535Z,7.18
2023-11-15T04:06:09.040Z,6.22
2023-11-15T04:11:14.056Z,7.63
2023-11-15T04:16:17.544Z,11.10
2023-11-15T04:21:21.084Z,8.45
2023-11-15T04:26:26.629Z,8.23
2023-11-15T04:31:30.198Z,10.15
2023-11-15T04:36:34.866Z,7.53
2023-11-15T04:41:39.753Z,7.15
2023-11-15T04:46:43.280Z,6.15
2023-11-15T04:51:46.748Z,5.57
2023-11-15T04:56:51.899Z,6.57
2023-11-15T05:01:55.536Z,7.95
2023-11-15T05:07:00.560Z,10.65
2023-11-15T05:12:06.989Z,11.93
2023-11-15T05:17:10.700Z,6.70
2023-11-15T05:22:14.162Z,10.50
2023-11-15T05:27:20.298Z,6.25
2023-11-15T05:32:23.754Z,9.20
2023-11-15T05:37:27.359Z,8.13
2023-11-15T05:42:32.197Z,9.90
2023-11-15T05:47:35.731Z,7.55
2023-11-15T05:52:39.731Z,9.77
2023-11-15T05:57:44.502Z,6.78
2023-11-15T06:02:49.679Z,6.07
2023-11-15T06:07:53.242Z,8.25
2023-11-15T06:12:58.053Z,5.45
2023-11-15T06:18:01.648Z,6.97
2023-11-15T06:23:05.689Z,9.93
2023-11-15T06:28:10.481Z,7.10
2023-11-15T06:33:14.161Z,8.02
2023-11-15T06:38:17.709Z,7.25
2023-11-15T06:43:23.053Z,6.93
2023-11-15T06:48:26.573Z,6.45
2023-11-15T06:53:30.111Z,8.02
2023-11-15T06:58:34.940Z,5.78
2023-11-15T07:03:38.878Z,6.30
2023-11-15T07:08:42.701Z,9.32
2023-11-15T07:13:47.624Z,7.90
2023-11-15T07:18:51.192Z,10.25
2023-11-15T07:23:55.924Z,8.07
2023-11-15T07:29:01.709Z,20.40
2023-11-15T07:34:07.022Z,11.65
2023-11-15T07:39:14.927Z,12.07
2023-11-15T07:44:20.252Z,9.63
2023-11-15T07:49:25.041Z,12.18
2023-11-15T07:54:28.791Z,8.00
2023-11-15T07:59:33.761Z,16.90
2023-11-15T08:04:37.284Z,12.00
2023-11-15T08:09:42.318Z,14.40
2023-11-15T08:14:47.443Z,12.00
2023-11-15T08:19:50.882Z,12.68
2023-11-15T08:24:54.321Z,11.35
2023-11-15T08:30:01.121Z,10.77
2023-11-15T08:35:06.748Z,10.47
2023-11-15T08:40:23.022Z,10.48
2023-11-15T08:45:33.469Z,10.15
2023-11-15T08:50:37.190Z,12.00
2023-11-15T08:55:41.944Z,7.97
2023-11-15T09:00:47.677Z,17.17
2023-11-15T09:05:52.306Z,13.18
2023-11-15T09:10:56.442Z,8.73
2023-11-15T09:16:02.929Z,8.30
2023-11-15T09:21:07.435Z,11.05
2023-11-15T09:26:17.707Z,7.53
2023-11-15T09:31:23.530Z,12.63
2023-11-15T09:36:27.618Z,9.15
2023-11-15T09:41:31.380Z,9.02
2023-11-15T09:46:37.192Z,9.15
2023-11-15T09:51:43.285Z,8.52
2023-11-15T09:56:48.078Z,11.70
2023-11-15T10:01:54.304Z,15.32
2023-11-15T10:07:05.383Z,11.38
2023-11-15T10:12:11.730Z,11.73
2023-11-15T10:17:17.081Z,12.57
2023-11-15T10:22:20.527Z,10.18
2023-11-15T10:27:24.027Z,15.43
2023-11-15T10:32:30.321Z,15.55
2023-11-15T10:37:33.804Z,10.63
2023-11-15T10:42:39.097Z,9.80
2023-11-15T10:47:57.516Z,11.38
2023-11-15T10:53:01.618Z,11.40
2023-11-15T10:58:06.422Z,9.05
2023-11-15T11:03:12.819Z,8.07
2023-11-15T11:08:29.890Z,9.85
2023-11-15T11:13:35.172Z,12.13
2023-11-15T11:18:41.258Z,18.23
2023-11-15T11:24:13.263Z,21.67
2023-11-15T11:29:17.067Z,21.88
2023-11-15T11:34:25.987Z,27.90
2023-11-15T11:40:01.390Z,26.65
2023-11-15T11:45:05.991Z,29.77
2023-11-15T11:50:12.960Z,27.58
2023-11-15T11:55:16.989Z,23.50
2023-11-15T12:00:23.054Z,20.13
2023-11-15T12:05:29.229Z,21.67
2023-11-15T12:10:35.286Z,20.13
2023-11-15T12:15:40.010Z,18.92
2023-11-15T12:20:45.661Z,14.82
2023-11-15T12:25:53.335Z,18.90
2023-11-15T12:30:59.080Z,17.08
2023-11-15T12:36:07.861Z,15.27
2023-11-15T12:41:12.364Z,12.80
2023-11-15T12:46:22.537Z,15.45
2023-11-15T12:51:28.532Z,11.20
2023-11-15T12:56:32.225Z,10.38
2023-11-15T13:01:36.255Z,10.57
2023-11-15T13:06:43.112Z,10.20
2023-11-15T13:11:46.856Z,12.02
2023-11-15T13:16:50.424Z,9.60
2023-11-15T13:21:58.206Z,9.50
2023-11-15T13:32:05.823Z,7.18
2023-11-15T13:37:11.010Z,10.23
2023-11-15T13:42:14.592Z,7.32
2023-11-15T13:47:18.549Z,6.88
2023-11-15T13:52:23.465Z,8.07
2023-11-15T13:57:26.978Z,10.35
2023-11-15T14:02:30.509Z,8.93
2023-11-15T14:07:35.515Z,6.15
2023-11-15T14:12:40.762Z,8.38
2023-11-15T14:17:44.330Z,8.20
2023-11-15T14:22:49.525Z,5.43
2023-11-15T14:27:57.321Z,6.00
2023-11-15T14:33:02.305Z,5.38
2023-11-15T14:38:09.588Z,8.18
2023-11-15T14:43:15.746Z,5.68
2023-11-15T14:48:19.383Z,6.72
2023-11-15T14:53:37.669Z,6.55
2023-11-15T14:58:41.198Z,7.88
2023-11-15T15:03:44.853Z,7.68
2023-11-15T15:08:49.833Z,8.05
2023-11-15T15:13:53.780Z,5.53
2023-11-15T15:18:57.454Z,5.07
2023-11-15T15:24:02.341Z,6.47
2023-11-15T15:29:12.253Z,6.00
2023-11-15T15:34:18.753Z,6.30
2023-11-15T15:39:23.684Z,4.65
2023-11-15T15:44:27.645Z,6.30
2023-11-15T15:49:31.174Z,6.53
2023-11-15T15:54:36.333Z,5.43
2023-11-15T15:59:40.422Z,4.97
2023-11-15T16:04:44.445Z,8.40
2023-11-15T16:09:49.390Z,6.15
2023-11-15T16:14:52.946Z,11.98
2023-11-15T16:19:58.449Z,7.93
2023-11-15T16:25:03.626Z,7.13
2023-11-15T16:30:14.682Z,6.22
2023-11-15T16:35:18.924Z,7.47
2023-11-15T16:40:24.607Z,7.97
2023-11-15T16:45:28.923Z,26.77
2023-11-15T16:50:32.993Z,46.75
2023-11-15T16:55:39.430Z,45.95
2023-11-15T17:00:42.957Z,42.08
2023-11-15T17:05:46.650Z,30.10
2023-11-15T17:10:51.450Z,24.25
2023-11-15T17:15:54.904Z,30.63
2023-11-15T17:21:00.739Z,22.60
2023-11-15T17:26:06.936Z,33.40
2023-11-15T17:31:10.644Z,23.33
2023-11-15T17:36:14.058Z,26.13
2023-11-15T17:41:20.856Z,25.98
2023-11-15T17:46:26.538Z,34.63
2023-11-15T17:51:30.197Z,27.30
2023-11-15T17:56:35.263Z,25.52
2023-11-15T18:01:39.843Z,23.13
2023-11-15T18:06:44.201Z,21.83
2023-11-15T18:11:49.158Z,22.13
2023-11-15T18:16:53.959Z,21.33
2023-11-15T18:21:57.522Z,17.80
2023-11-15T18:27:02.466Z,17.92
2023-11-15T18:32:07.756Z,18.08
2023-11-15T18:37:11.226Z,18.65
2023-11-15T18:42:16.118Z,18.10
2023-11-15T18:47:19.616Z,14.05
2023-11-15T18:52:23.073Z,16.00
2023-11-15T18:57:28.582Z,14.70
2023-11-15T19:02:32.115Z,14.68
2023-11-15T19:07:35.631Z,13.32
2023-11-15T19:12:41.895Z,11.60
2023-11-15T19:17:51.143Z,13.55
2023-11-15T19:22:55.911Z,10.45
2023-11-15T19:28:01.494Z,13.13
2023-11-15T19:33:07.182Z,12.65
2023-11-15T19:38:13.578Z,13.80
2023-11-15T19:43:18.443Z,11.90
2023-11-15T19:48:21.998Z,11.23
2023-11-15T19:53:27.086Z,15.10
2023-11-15T19:58:33.072Z,11.07
2023-11-15T20:03:36.628Z,12.15
2023-11-15T20:08:40.912Z,7.80
2023-11-15T20:13:45.984Z,12.40
2023-11-15T20:18:49.523Z,9.02
2023-11-15T20:23:53.903Z,8.95
2023-11-15T20:28:58.952Z,11.57
2023-11-15T20:34:06.512Z,10.07
2023-11-15T20:39:21.813Z,9.82
2023-11-15T20:44:29.972Z,9.48
2023-11-15T20:49:33.443Z,12.00
2023-11-15T20:54:36.952Z,10.45
2023-11-15T20:59:41.845Z,9.40
2023-11-15T21:04:45.368Z,6.97
2023-11-15T21:09:48.924Z,8.35
2023-11-15T21:14:53.848Z,11.02
2023-11-15T21:19:57.297Z,8.48
2023-11-15T21:25:00.749Z,8.65
2023-11-15T21:30:10.915Z,7.68
2023-11-15T21:35:15.484Z,7.40
2023-11-15T21:40:20.195Z,7.47
2023-11-15T21:45:25.878Z,8.20
2023-11-15T21:50:29.651Z,7.15
2023-11-15T21:55:33.303Z,8.32
2023-11-15T22:00:38.890Z,5.25
2023-11-15T22:05:42.379Z,5.65
2023-11-15T22:10:45.867Z,7.10
2023-11-15T22:15:50.939Z,6.55
2023-11-15T22:20:55.356Z,7.45
2023-11-15T22:25:58.994Z,5.88
2023-11-15T22:31:04.843Z,8.23
2023-11-15T22:36:10.826Z,9.07
2023-11-15T22:41:14.627Z,8.98
2023-11-15T22:46:19.525Z,9.48
2023-11-15T22:51:23.247Z,7.50
2023-11-15T22:56:26.986Z,10.93
2023-11-15T23:01:32.273Z,12.45
2023-11-15T23:06:36.245Z,6.38
2023-11-15T23:11:39.929Z,8.75
2023-11-15T23:16:45.593Z,8.73
2023-11-15T23:21:58.852Z,7.75
2023-11-15T23:27:07.199Z,10.32
2023-11-15T23:32:12.337Z,6.93
2023-11-15T23:37:16.602Z,7.05
2023-11-15T23:42:21.356Z,7.55
2023-11-15T23:47:26.292Z,7.07
2023-11-15T23:52:29.974Z,7.68
2023-11-15T23:57:34.106Z,8.43
